sensor_id;sensor_type;location;lat;lon;timestamp;pressure;altitude;pressure_sealevel;temperature;humidity
42285;BME280;27942;47.510;18.966;2022-12-05T00:00:59;-15279.44;;;2.71;100.00
42285;BME280;27942;47.510;18.966;2022-12-05T00:03:35;-15277.41;;;2.64;100.00
42285;BME280;27942;47.510;18.966;2022-12-05T00:06:02;-15280.38;;;2.74;100.00
42285;BME280;27942;47.510;18.966;2022-12-05T00:08:28;-15280.53;;;2.74;100.00
42285;BME280;27942;47.510;18.966;2022-12-05T00:10:53;-15277.56;;;2.65;100.00
42285;BME280;27942;47.510;18.966;2022-12-05T00:13:18;-15278.19;;;2.67;100.00
42285;BME280;27942;47.510;18.966;2022-12-05T00:15:43;-15277.41;;;2.64;100.00
42285;BME280;27942;47.510;18.966;2022-12-05T00:18:09;-15277.28;;;2.64;100.00
42285;BME280;27942;47.510;18.966;2022-12-05T00:20:34;-15277.41;;;2.64;100.00
42285;BME280;27942;47.510;18.966;2022-12-05T00:22:59;-15275.41;;;2.58;100.00
42285;BME280;27942;47.510;18.966;2022-12-05T00:25:25;-15276.66;;;2.62;100.00
42285;BME280;27942;47.510;18.966;2022-12-05T00:27:50;-15277.56;;;2.65;100.00
42285;BME280;27942;47.510;18.966;2022-12-05T00:30:15;-15273.22;;;2.50;100.00
42285;BME280;27942;47.510;18.966;2022-12-05T00:32:40;-15273.22;;;2.50;100.00
42285;BME280;27942;47.510;18.966;2022-12-05T00:35:06;-15273.38;;;2.51;100.00
42285;BME280;27942;47.510;18.966;2022-12-05T00:37:31;-15272.94;;;2.49;100.00
42285;BME280;27942;47.510;18.966;2022-12-05T00:39:57;-15271.06;;;2.43;100.00
42285;BME280;27942;47.510;18.966;2022-12-05T00:42:22;-15272.47;;;2.48;100.00
42285;BME280;27942;47.510;18.966;2022-12-05T00:44:50;-15275.41;;;2.58;100.00
42285;BME280;27942;47.510;18.966;2022-12-05T00:47:16;-15276.03;;;2.60;100.00
42285;BME280;27942;47.510;18.966;2022-12-05T00:49:41;-15275.72;;;2.59;100.00
42285;BME280;27942;47.510;18.966;2022-12-05T00:52:07;-15277.09;;;2.63;100.00
42285;BME280;27942;47.510;18.966;2022-12-05T00:54:32;-15276.94;;;2.63;100.00
42285;BME280;27942;47.510;18.966;2022-12-05T00:56:57;-15277.28;;;2.64;100.00
42285;BME280;27942;47.510;18.966;2022-12-05T00:59:22;-15276.03;;;2.60;100.00
42285;BME280;27942;47.510;18.966;2022-12-05T01:01:49;-15275.25;;;2.57;100.00
42285;BME280;27942;47.510;18.966;2022-12-05T01:04:19;-15273.22;;;2.50;100.00
42285;BME280;27942;47.510;18.966;2022-12-05T01:06:45;-15275.41;;;2.58;100.00
42285;BME280;27942;47.510;18.966;2022-12-05T01:09:16;-15273.84;;;2.52;100.00
42285;BME280;27942;47.510;18.966;2022-12-05T01:11:42;-15271.53;;;2.45;100.00
42285;BME280;27942;47.510;18.966;2022-12-05T01:14:19;-15272.31;;;2.47;100.00
42285;BME280;27942;47.510;18.966;2022-12-05T01:16:46;-15274.78;;;2.55;100.00
42285;BME280;27942;47.510;18.966;2022-12-05T01:19:18;-15271.06;;;2.43;100.00
42285;BME280;27942;47.510;18.966;2022-12-05T01:21:43;-15270.75;;;2.42;100.00
42285;BME280;27942;47.510;18.966;2022-12-05T01:24:09;-15270.91;;;2.43;100.00
42285;BME280;27942;47.510;18.966;2022-12-05T01:26:35;-15270.44;;;2.41;100.00
42285;BME280;27942;47.510;18.966;2022-12-05T01:29:00;-15271.22;;;2.44;100.00
42285;BME280;27942;47.510;18.966;2022-12-05T01:31:31;-15270.59;;;2.42;100.00
42285;BME280;27942;47.510;18.966;2022-12-05T01:33:58;-15268.28;;;2.34;100.00
42285;BME280;27942;47.510;18.966;2022-12-05T01:36:25;-15272.31;;;2.47;100.00
42285;BME280;27942;47.510;18.966;2022-12-05T01:38:51;-15268.28;;;2.34;100.00
42285;BME280;27942;47.510;18.966;2022-12-05T01:41:21;-15270.75;;;2.42;100.00
42285;BME280;27942;47.510;18.966;2022-12-05T01:46:38;-15269.19;;;2.37;100.00
42285;BME280;27942;47.510;18.966;2022-12-05T01:49:21;-15267.34;;;2.31;100.00
42285;BME280;27942;47.510;18.966;2022-12-05T01:51:52;-15269.19;;;2.37;100.00
42285;BME280;27942;47.510;18.966;2022-12-05T01:54:19;-15267.66;;;2.32;100.00
42285;BME280;27942;47.510;18.966;2022-12-05T01:56:54;-15267.03;;;2.30;100.00
42285;BME280;27942;47.510;18.966;2022-12-05T01:59:22;-15270.91;;;2.43;100.00
42285;BME280;27942;47.510;18.966;2022-12-05T02:01:49;-15267.66;;;2.32;100.00
42285;BME280;27942;47.510;18.966;2022-12-05T02:04:15;-15269.97;;;2.40;100.00
42285;BME280;27942;47.510;18.966;2022-12-05T02:06:41;-15269.81;;;2.39;100.00
42285;BME280;27942;47.510;18.966;2022-12-05T02:09:06;-15268.59;;;2.35;100.00
42285;BME280;27942;47.510;18.966;2022-12-05T02:11:33;-15268.91;;;2.36;100.00
42285;BME280;27942;47.510;18.966;2022-12-05T02:14:24;-15268.91;;;2.36;100.00
42285;BME280;27942;47.510;18.966;2022-12-05T02:27:56;-15270.13;;;2.40;100.00
42285;BME280;27942;47.510;18.966;2022-12-05T02:30:36;-15269.34;;;2.38;100.00
42285;BME280;27942;47.510;18.966;2022-12-05T02:35:43;-15269.97;;;2.40;100.00
42285;BME280;27942;47.510;18.966;2022-12-05T02:38:30;-15269.66;;;2.39;100.00
42285;BME280;27942;47.510;18.966;2022-12-05T02:41:26;-15270.13;;;2.40;100.00
42285;BME280;27942;47.510;18.966;2022-12-05T02:46:27;-15267.97;;;2.33;100.00
42285;BME280;27942;47.510;18.966;2022-12-05T02:48:58;-15268.44;;;2.35;100.00
42285;BME280;27942;47.510;18.966;2022-12-05T02:51:29;-15267.97;;;2.33;100.00
42285;BME280;27942;47.510;18.966;2022-12-05T02:53:58;-15270.13;;;2.40;100.00
42285;BME280;27942;47.510;18.966;2022-12-05T02:56:28;-15271.06;;;2.43;100.00
42285;BME280;27942;47.510;18.966;2022-12-05T02:58:56;-15270.75;;;2.42;100.00
42285;BME280;27942;47.510;18.966;2022-12-05T03:01:24;-15271.69;;;2.45;100.00
42285;BME280;27942;47.510;18.966;2022-12-05T03:03:51;-15270.75;;;2.42;100.00
42285;BME280;27942;47.510;18.966;2022-12-05T03:06:30;-15272.00;;;2.46;100.00
42285;BME280;27942;47.510;18.966;2022-12-05T03:09:02;-15268.91;;;2.36;100.00
42285;BME280;27942;47.510;18.966;2022-12-05T03:11:32;-15270.91;;;2.43;100.00
42285;BME280;27942;47.510;18.966;2022-12-05T03:14:02;-15268.59;;;2.35;100.00
42285;BME280;27942;47.510;18.966;2022-12-05T03:16:52;-15267.34;;;2.31;100.00
42285;BME280;27942;47.510;18.966;2022-12-05T03:19:24;-15268.44;;;2.35;100.00
42285;BME280;27942;47.510;18.966;2022-12-05T03:22:04;-15267.19;;;2.30;100.00
42285;BME280;27942;47.510;18.966;2022-12-05T03:24:34;-15267.66;;;2.32;100.00
42285;BME280;27942;47.510;18.966;2022-12-05T03:27:14;-15268.75;;;2.36;100.00
42285;BME280;27942;47.510;18.966;2022-12-05T03:29:47;-15265.00;;;2.23;100.00
42285;BME280;27942;47.510;18.966;2022-12-05T03:35:00;-15266.25;;;2.27;100.00
42285;BME280;27942;47.510;18.966;2022-12-05T03:40:28;-15264.88;;;2.23;100.00
42285;BME280;27942;47.510;18.966;2022-12-05T03:43:19;-15267.81;;;2.33;100.00
42285;BME280;27942;47.510;18.966;2022-12-05T03:48:41;-15269.34;;;2.38;100.00
42285;BME280;27942;47.510;18.966;2022-12-05T03:51:12;-15266.41;;;2.28;100.00
42285;BME280;27942;47.510;18.966;2022-12-05T03:53:51;-15267.50;;;2.32;100.00
42285;BME280;27942;47.510;18.966;2022-12-05T03:56:24;-15270.44;;;2.41;100.00
42285;BME280;27942;47.510;18.966;2022-12-05T03:58:57;-15270.44;;;2.41;100.00
42285;BME280;27942;47.510;18.966;2022-12-05T04:01:28;-15268.75;;;2.36;100.00
42285;BME280;27942;47.510;18.966;2022-12-05T04:03:59;-15270.75;;;2.42;100.00
42285;BME280;27942;47.510;18.966;2022-12-05T04:06:34;-15270.91;;;2.43;100.00
42285;BME280;27942;47.510;18.966;2022-12-05T04:09:08;-15272.00;;;2.46;100.00
42285;BME280;27942;47.510;18.966;2022-12-05T04:11:39;-15271.38;;;2.44;100.00
42285;BME280;27942;47.510;18.966;2022-12-05T04:14:13;-15267.50;;;2.32;100.00
42285;BME280;27942;47.510;18.966;2022-12-05T04:16:46;-15268.13;;;2.34;100.00
42285;BME280;27942;47.510;18.966;2022-12-05T04:19:41;-15270.44;;;2.41;100.00
42285;BME280;27942;47.510;18.966;2022-12-05T04:22:27;-15268.44;;;2.35;100.00
42285;BME280;27942;47.510;18.966;2022-12-05T04:24:55;-15269.50;;;2.38;100.00
42285;BME280;27942;47.510;18.966;2022-12-05T04:30:39;-15266.88;;;2.29;100.00
42285;BME280;27942;47.510;18.966;2022-12-05T04:33:17;-15267.66;;;2.32;100.00
42285;BME280;27942;47.510;18.966;2022-12-05T04:38:28;-15265.47;;;2.25;100.00
42285;BME280;27942;47.510;18.966;2022-12-05T04:40:59;-15263.94;;;2.20;100.00
42285;BME280;27942;47.510;18.966;2022-12-05T04:43:27;-15261.75;;;2.13;100.00
42285;BME280;27942;47.510;18.966;2022-12-05T04:45:56;-15262.22;;;2.14;100.00
42285;BME280;27942;47.510;18.966;2022-12-05T04:48:24;-15262.22;;;2.14;100.00
42285;BME280;27942;47.510;18.966;2022-12-05T04:50:52;-15263.31;;;2.18;100.00
42285;BME280;27942;47.510;18.966;2022-12-05T04:53:20;-15264.41;;;2.21;100.00
42285;BME280;27942;47.510;18.966;2022-12-05T04:55:49;-15263.94;;;2.20;100.00
42285;BME280;27942;47.510;18.966;2022-12-05T04:58:19;-15261.91;;;2.13;100.00
42285;BME280;27942;47.510;18.966;2022-12-05T05:03:45;-15263.00;;;2.17;100.00
42285;BME280;27942;47.510;18.966;2022-12-05T05:06:13;-15261.75;;;2.13;100.00
42285;BME280;27942;47.510;18.966;2022-12-05T05:08:47;-15265.16;;;2.24;100.00
42285;BME280;27942;47.510;18.966;2022-12-05T05:11:16;-15266.09;;;2.27;100.00
42285;BME280;27942;47.510;18.966;2022-12-05T05:13:41;-15265.63;;;2.25;100.00
42285;BME280;27942;47.510;18.966;2022-12-05T05:16:11;-15264.88;;;2.23;100.00
42285;BME280;27942;47.510;18.966;2022-12-05T05:18:37;-15264.41;;;2.21;100.00
42285;BME280;27942;47.510;18.966;2022-12-05T05:21:02;-15267.81;;;2.33;100.00
42285;BME280;27942;47.510;18.966;2022-12-05T05:23:27;-15264.88;;;2.23;100.00
42285;BME280;27942;47.510;18.966;2022-12-05T05:25:54;-15266.09;;;2.27;100.00
42285;BME280;27942;47.510;18.966;2022-12-05T05:28:21;-15265.78;;;2.26;100.00
42285;BME280;27942;47.510;18.966;2022-12-05T05:30:46;-15266.56;;;2.28;100.00
42285;BME280;27942;47.510;18.966;2022-12-05T05:33:13;-15266.88;;;2.29;100.00
42285;BME280;27942;47.510;18.966;2022-12-05T05:35:38;-15266.09;;;2.27;100.00
42285;BME280;27942;47.510;18.966;2022-12-05T05:38:04;-15268.28;;;2.34;100.00
42285;BME280;27942;47.510;18.966;2022-12-05T05:40:29;-15266.09;;;2.27;100.00
42285;BME280;27942;47.510;18.966;2022-12-05T05:42:54;-15267.66;;;2.32;100.00
42285;BME280;27942;47.510;18.966;2022-12-05T05:45:20;-15269.19;;;2.37;100.00
42285;BME280;27942;47.510;18.966;2022-12-05T05:47:47;-15268.75;;;2.36;100.00
42285;BME280;27942;47.510;18.966;2022-12-05T05:50:14;-15267.97;;;2.33;100.00
42285;BME280;27942;47.510;18.966;2022-12-05T05:52:39;-15267.19;;;2.30;100.00
42285;BME280;27942;47.510;18.966;2022-12-05T05:55:05;-15266.72;;;2.29;100.00
42285;BME280;27942;47.510;18.966;2022-12-05T05:57:31;-15267.66;;;2.32;100.00
42285;BME280;27942;47.510;18.966;2022-12-05T05:59:56;-15262.53;;;2.15;100.00
42285;BME280;27942;47.510;18.966;2022-12-05T06:02:22;-15266.41;;;2.28;100.00
42285;BME280;27942;47.510;18.966;2022-12-05T06:04:47;-15264.72;;;2.22;100.00
42285;BME280;27942;47.510;18.966;2022-12-05T06:07:13;-15265.94;;;2.26;100.00
42285;BME280;27942;47.510;18.966;2022-12-05T06:09:38;-15267.50;;;2.32;100.00
42285;BME280;27942;47.510;18.966;2022-12-05T06:12:04;-15268.44;;;2.35;100.00
42285;BME280;27942;47.510;18.966;2022-12-05T06:14:29;-15268.44;;;2.35;100.00
42285;BME280;27942;47.510;18.966;2022-12-05T06:16:54;-15267.34;;;2.31;100.00
42285;BME280;27942;47.510;18.966;2022-12-05T06:19:20;-15268.13;;;2.34;100.00
42285;BME280;27942;47.510;18.966;2022-12-05T06:21:48;-15268.28;;;2.34;100.00
42285;BME280;27942;47.510;18.966;2022-12-05T06:24:13;-15265.16;;;2.24;100.00
42285;BME280;27942;47.510;18.966;2022-12-05T06:26:38;-15264.72;;;2.22;100.00
42285;BME280;27942;47.510;18.966;2022-12-05T06:29:03;-15267.97;;;2.33;100.00
42285;BME280;27942;47.510;18.966;2022-12-05T06:31:29;-15268.13;;;2.34;100.00
42285;BME280;27942;47.510;18.966;2022-12-05T06:33:59;-15270.28;;;2.41;100.00
42285;BME280;27942;47.510;18.966;2022-12-05T06:36:26;-15269.19;;;2.37;100.00
42285;BME280;27942;47.510;18.966;2022-12-05T06:38:51;-15270.44;;;2.41;100.00
42285;BME280;27942;47.510;18.966;2022-12-05T06:41:18;-15267.97;;;2.33;100.00
42285;BME280;27942;47.510;18.966;2022-12-05T06:43:44;-15266.25;;;2.27;100.00
42285;BME280;27942;47.510;18.966;2022-12-05T06:46:11;-15264.88;;;2.23;100.00
42285;BME280;27942;47.510;18.966;2022-12-05T06:48:38;-15268.75;;;2.36;100.00
42285;BME280;27942;47.510;18.966;2022-12-05T06:51:03;-15270.44;;;2.41;100.00
42285;BME280;27942;47.510;18.966;2022-12-05T06:53:29;-15268.59;;;2.35;100.00
42285;BME280;27942;47.510;18.966;2022-12-05T06:55:59;-15271.69;;;2.45;100.00
42285;BME280;27942;47.510;18.966;2022-12-05T06:58:25;-15272.00;;;2.46;100.00
42285;BME280;27942;47.510;18.966;2022-12-05T07:00:51;-15271.69;;;2.45;100.00
42285;BME280;27942;47.510;18.966;2022-12-05T07:03:35;-15273.09;;;2.50;100.00
42285;BME280;27942;47.510;18.966;2022-12-05T07:06:01;-15271.69;;;2.45;100.00
42285;BME280;27942;47.510;18.966;2022-12-05T07:08:27;-15271.22;;;2.44;100.00
42285;BME280;27942;47.510;18.966;2022-12-05T07:10:53;-15270.59;;;2.42;100.00
42285;BME280;27942;47.510;18.966;2022-12-05T07:13:18;-15272.63;;;2.48;100.00
42285;BME280;27942;47.510;18.966;2022-12-05T07:15:47;-15271.53;;;2.45;100.00
42285;BME280;27942;47.510;18.966;2022-12-05T07:18:14;-15271.06;;;2.43;100.00
42285;BME280;27942;47.510;18.966;2022-12-05T07:20:40;-15274.47;;;2.54;100.00
42285;BME280;27942;47.510;18.966;2022-12-05T07:23:05;-15271.53;;;2.45;100.00
42285;BME280;27942;47.510;18.966;2022-12-05T07:25:30;-15273.53;;;2.51;100.00
42285;BME280;27942;47.510;18.966;2022-12-05T07:27:55;-15274.94;;;2.56;100.00
42285;BME280;27942;47.510;18.966;2022-12-05T07:30:21;-15274.63;;;2.55;100.00
42285;BME280;27942;47.510;18.966;2022-12-05T07:32:46;-15277.88;;;2.66;100.00
42285;BME280;27942;47.510;18.966;2022-12-05T07:35:11;-15278.50;;;2.68;100.00
42285;BME280;27942;47.510;18.966;2022-12-05T07:37:37;-15276.34;;;2.61;100.00
42285;BME280;27942;47.510;18.966;2022-12-05T07:40:02;-15279.28;;;2.70;100.00
42285;BME280;27942;47.510;18.966;2022-12-05T07:42:27;-15280.06;;;2.73;100.00
42285;BME280;27942;47.510;18.966;2022-12-05T07:44:53;-15278.66;;;2.68;100.00
42285;BME280;27942;47.510;18.966;2022-12-05T07:47:18;-15279.13;;;2.70;100.00
42285;BME280;27942;47.510;18.966;2022-12-05T07:49:43;-15277.56;;;2.65;100.00
42285;BME280;27942;47.510;18.966;2022-12-05T07:52:09;-15279.91;;;2.72;100.00
42285;BME280;27942;47.510;18.966;2022-12-05T07:54:34;-15280.06;;;2.73;100.00
42285;BME280;27942;47.510;18.966;2022-12-05T07:56:59;-15277.56;;;2.65;100.00
42285;BME280;27942;47.510;18.966;2022-12-05T07:59:25;-15279.44;;;2.71;100.00
42285;BME280;27942;47.510;18.966;2022-12-05T08:01:50;-15281.44;;;2.77;100.00
42285;BME280;27942;47.510;18.966;2022-12-05T08:04:16;-15280.22;;;2.73;100.00
42285;BME280;27942;47.510;18.966;2022-12-05T08:06:41;-15281.13;;;2.76;100.00
42285;BME280;27942;47.510;18.966;2022-12-05T08:09:07;-15281.28;;;2.77;100.00
42285;BME280;27942;47.510;18.966;2022-12-05T08:11:32;-15284.41;;;2.87;100.00
42285;BME280;27942;47.510;18.966;2022-12-05T08:14:01;-15284.56;;;2.88;100.00
42285;BME280;27942;47.510;18.966;2022-12-05T08:16:29;-15285.94;;;2.92;100.00
42285;BME280;27942;47.510;18.966;2022-12-05T08:18:55;-15283.47;;;2.84;100.00
42285;BME280;27942;47.510;18.966;2022-12-05T08:21:22;-15283.16;;;2.83;100.00
42285;BME280;27942;47.510;18.966;2022-12-05T08:23:49;-15283.78;;;2.85;100.00
42285;BME280;27942;47.510;18.966;2022-12-05T08:26:16;-15285.78;;;2.92;100.00
42285;BME280;27942;47.510;18.966;2022-12-05T08:28:43;-15283.78;;;2.85;100.00
42285;BME280;27942;47.510;18.966;2022-12-05T08:31:11;-15283.16;;;2.83;100.00
42285;BME280;27942;47.510;18.966;2022-12-05T08:33:37;-15282.38;;;2.80;100.00
42285;BME280;27942;47.510;18.966;2022-12-05T08:36:05;-15281.44;;;2.77;100.00
42285;BME280;27942;47.510;18.966;2022-12-05T08:38:30;-15283.31;;;2.84;100.00
42285;BME280;27942;47.510;18.966;2022-12-05T08:41:02;-15281.91;;;2.79;100.00
42285;BME280;27942;47.510;18.966;2022-12-05T08:43:29;-15282.69;;;2.81;100.00
42285;BME280;27942;47.510;18.966;2022-12-05T08:45:54;-15281.28;;;2.77;100.00
42285;BME280;27942;47.510;18.966;2022-12-05T08:48:21;-15284.25;;;2.87;100.00
42285;BME280;27942;47.510;18.966;2022-12-05T08:50:46;-15283.78;;;2.85;100.00
42285;BME280;27942;47.510;18.966;2022-12-05T08:53:12;-15286.09;;;2.93;100.00
42285;BME280;27942;47.510;18.966;2022-12-05T08:55:37;-15287.81;;;2.98;100.00
42285;BME280;27942;47.510;18.966;2022-12-05T08:58:03;-15284.41;;;2.87;100.00
42285;BME280;27942;47.510;18.966;2022-12-05T09:00:28;-15286.88;;;2.95;100.00
42285;BME280;27942;47.510;18.966;2022-12-05T09:02:53;-15288.75;;;3.01;100.00
42285;BME280;27942;47.510;18.966;2022-12-05T09:05:19;-15289.34;;;3.03;100.00
42285;BME280;27942;47.510;18.966;2022-12-05T09:07:45;-15290.75;;;3.08;100.00
42285;BME280;27942;47.510;18.966;2022-12-05T09:10:11;-15292.47;;;3.14;100.00
42285;BME280;27942;47.510;18.966;2022-12-05T09:12:37;-15291.53;;;3.11;100.00
42285;BME280;27942;47.510;18.966;2022-12-05T09:15:05;-15292.47;;;3.14;100.00
42285;BME280;27942;47.510;18.966;2022-12-05T09:17:30;-15291.53;;;3.11;100.00
42285;BME280;27942;47.510;18.966;2022-12-05T09:19:56;-15290.13;;;3.06;100.00
42285;BME280;27942;47.510;18.966;2022-12-05T09:22:21;-15288.91;;;3.02;100.00
42285;BME280;27942;47.510;18.966;2022-12-05T09:24:47;-15291.38;;;3.10;100.00
42285;BME280;27942;47.510;18.966;2022-12-05T09:27:12;-15295.56;;;3.24;100.00
42285;BME280;27942;47.510;18.966;2022-12-05T09:29:37;-15294.47;;;3.20;100.00
42285;BME280;27942;47.510;18.966;2022-12-05T09:32:03;-15297.13;;;3.29;100.00
42285;BME280;27942;47.510;18.966;2022-12-05T09:34:28;-15293.69;;;3.18;100.00
42285;BME280;27942;47.510;18.966;2022-12-05T09:36:54;-15294.47;;;3.20;100.00
42285;BME280;27942;47.510;18.966;2022-12-05T09:39:22;-15296.03;;;3.25;100.00
42285;BME280;27942;47.510;18.966;2022-12-05T09:44:48;-15297.72;;;3.31;100.00
42285;BME280;27942;47.510;18.966;2022-12-05T09:53:04;-15298.34;;;3.33;100.00
42285;BME280;27942;47.510;18.966;2022-12-05T09:55:48;-15299.28;;;3.36;100.00
42285;BME280;27942;47.510;18.966;2022-12-05T09:58:32;-15300.69;;;3.41;100.00
42285;BME280;27942;47.510;18.966;2022-12-05T10:01:04;-15300.22;;;3.39;100.00
42285;BME280;27942;47.510;18.966;2022-12-05T10:03:42;-15300.53;;;3.40;100.00
42285;BME280;27942;47.510;18.966;2022-12-05T10:06:25;-15296.81;;;3.28;100.00
42285;BME280;27942;47.510;18.966;2022-12-05T10:15:03;-15299.75;;;3.38;100.00
42285;BME280;27942;47.510;18.966;2022-12-05T10:17:34;-15303.16;;;3.49;100.00
42285;BME280;27942;47.510;18.966;2022-12-05T10:20:02;-15304.09;;;3.52;100.00
42285;BME280;27942;47.510;18.966;2022-12-05T10:22:38;-15304.25;;;3.52;100.00
42285;BME280;27942;47.510;18.966;2022-12-05T10:25:08;-15304.88;;;3.54;100.00
42285;BME280;27942;47.510;18.966;2022-12-05T10:27:47;-15303.63;;;3.50;100.00
42285;BME280;27942;47.510;18.966;2022-12-05T10:30:19;-15302.84;;;3.48;100.00
42285;BME280;27942;47.510;18.966;2022-12-05T10:32:59;-15306.25;;;3.59;100.00
42285;BME280;27942;47.510;18.966;2022-12-05T10:35:30;-15306.88;;;3.61;100.00
42285;BME280;27942;47.510;18.966;2022-12-05T10:38:04;-15305.78;;;3.57;100.00
42285;BME280;27942;47.510;18.966;2022-12-05T10:40:39;-15306.56;;;3.60;100.00
42285;BME280;27942;47.510;18.966;2022-12-05T10:43:06;-15306.09;;;3.58;100.00
42285;BME280;27942;47.510;18.966;2022-12-05T10:45:40;-15304.25;;;3.52;100.00
42285;BME280;27942;47.510;18.966;2022-12-05T10:48:10;-15305.78;;;3.57;100.00
42285;BME280;27942;47.510;18.966;2022-12-05T10:50:38;-15308.44;;;3.66;100.00
42285;BME280;27942;47.510;18.966;2022-12-05T10:53:04;-15311.69;;;3.77;100.00
42285;BME280;27942;47.510;18.966;2022-12-05T10:55:40;-15310.75;;;3.74;100.00
42285;BME280;27942;47.510;18.966;2022-12-05T11:00:35;-15307.97;;;3.65;100.00
42285;BME280;27942;47.510;18.966;2022-12-05T11:03:31;-15308.28;;;3.66;100.00
42285;BME280;27942;47.510;18.966;2022-12-05T11:06:00;-15307.81;;;3.64;100.00
42285;BME280;27942;47.510;18.966;2022-12-05T11:08:30;-15307.97;;;3.65;100.00
42285;BME280;27942;47.510;18.966;2022-12-05T11:11:16;-15308.13;;;3.65;100.00
42285;BME280;27942;47.510;18.966;2022-12-05T11:16:28;-15308.91;;;3.68;100.00
42285;BME280;27942;47.510;18.966;2022-12-05T11:18:54;-15306.41;;;3.59;100.00
42285;BME280;27942;47.510;18.966;2022-12-05T11:21:19;-15306.56;;;3.60;100.00
42285;BME280;27942;47.510;18.966;2022-12-05T11:23:46;-15305.19;;;3.55;100.00
42285;BME280;27942;47.510;18.966;2022-12-05T11:26:18;-15308.59;;;3.67;100.00
42285;BME280;27942;47.510;18.966;2022-12-05T11:28:44;-15304.72;;;3.54;100.00
42285;BME280;27942;47.510;18.966;2022-12-05T11:33:41;-15308.44;;;3.66;100.00
42285;BME280;27942;47.510;18.966;2022-12-05T11:36:38;-15309.53;;;3.70;100.00
42285;BME280;27942;47.510;18.966;2022-12-05T11:39:04;-15306.56;;;3.60;100.00
42285;BME280;27942;47.510;18.966;2022-12-05T11:44:29;-15309.69;;;3.70;100.00
42285;BME280;27942;47.510;18.966;2022-12-05T11:47:18;-15310.16;;;3.72;100.00
42285;BME280;27942;47.510;18.966;2022-12-05T11:55:26;-15310.44;;;3.73;100.00
42285;BME280;27942;47.510;18.966;2022-12-05T12:00:24;-15311.06;;;3.75;100.00
42285;BME280;27942;47.510;18.966;2022-12-05T12:11:46;-15309.22;;;3.69;100.00
42285;BME280;27942;47.510;18.966;2022-12-05T12:24:52;-15314.16;;;3.85;100.00
42285;BME280;27942;47.510;18.966;2022-12-05T12:33:16;-15315.41;;;3.89;100.00
42285;BME280;27942;47.510;18.966;2022-12-05T12:46:54;-15313.88;;;3.84;100.00
42285;BME280;27942;47.510;18.966;2022-12-05T12:52:01;-15315.25;;;3.89;100.00
42285;BME280;27942;47.510;18.966;2022-12-05T13:00:21;-15314.00;;;3.84;100.00
42285;BME280;27942;47.510;18.966;2022-12-05T13:03:44;-15312.31;;;3.79;100.00
42285;BME280;27942;47.510;18.966;2022-12-05T13:05:48;-15310.91;;;3.74;100.00
42285;BME280;27942;47.510;18.966;2022-12-05T13:08:33;-15312.00;;;3.78;100.00
42285;BME280;27942;47.510;18.966;2022-12-05T13:11:02;-15311.53;;;3.76;100.00
42285;BME280;27942;47.510;18.966;2022-12-05T13:13:34;-15310.28;;;3.72;100.00
42285;BME280;27942;47.510;18.966;2022-12-05T13:16:04;-15311.22;;;3.75;100.00
42285;BME280;27942;47.510;18.966;2022-12-05T13:18:31;-15310.91;;;3.74;100.00
42285;BME280;27942;47.510;18.966;2022-12-05T13:20:59;-15310.75;;;3.74;100.00
42285;BME280;27942;47.510;18.966;2022-12-05T13:23:30;-15311.38;;;3.76;100.00
42285;BME280;27942;47.510;18.966;2022-12-05T13:25:57;-15309.53;;;3.70;100.00
42285;BME280;27942;47.510;18.966;2022-12-05T13:28:28;-15311.84;;;3.77;100.00
42285;BME280;27942;47.510;18.966;2022-12-05T13:30:56;-15310.91;;;3.74;100.00
42285;BME280;27942;47.510;18.966;2022-12-05T13:33:24;-15311.38;;;3.76;100.00
42285;BME280;27942;47.510;18.966;2022-12-05T13:35:55;-15312.16;;;3.78;100.00
42285;BME280;27942;47.510;18.966;2022-12-05T13:38:40;-15310.44;;;3.73;100.00
42285;BME280;27942;47.510;18.966;2022-12-05T13:41:45;-15308.28;;;3.66;100.00
42285;BME280;27942;47.510;18.966;2022-12-05T13:44:37;-15308.75;;;3.67;100.00
42285;BME280;27942;47.510;18.966;2022-12-05T13:47:04;-15310.16;;;3.72;100.00
42285;BME280;27942;47.510;18.966;2022-12-05T13:49:42;-15311.38;;;3.76;100.00
42285;BME280;27942;47.510;18.966;2022-12-05T13:52:22;-15310.91;;;3.74;100.00
42285;BME280;27942;47.510;18.966;2022-12-05T13:55:00;-15310.16;;;3.72;100.00
42285;BME280;27942;47.510;18.966;2022-12-05T14:07:46;-15312.31;;;3.79;100.00
42285;BME280;27942;47.510;18.966;2022-12-05T14:10:13;-15309.38;;;3.69;100.00
42285;BME280;27942;47.510;18.966;2022-12-05T14:15:35;-15309.97;;;3.71;100.00
42285;BME280;27942;47.510;18.966;2022-12-05T14:18:08;-15309.53;;;3.70;100.00
42285;BME280;27942;47.510;18.966;2022-12-05T14:21:10;-15309.53;;;3.70;100.00
42285;BME280;27942;47.510;18.966;2022-12-05T14:29:22;-15311.22;;;3.75;100.00
42285;BME280;27942;47.510;18.966;2022-12-05T14:35:00;-15311.06;;;3.75;100.00
42285;BME280;27942;47.510;18.966;2022-12-05T14:39:58;-15311.22;;;3.75;100.00
42285;BME280;27942;47.510;18.966;2022-12-05T14:42:37;-15310.16;;;3.72;100.00
42285;BME280;27942;47.510;18.966;2022-12-05T14:45:25;-15309.53;;;3.70;100.00
42285;BME280;27942;47.510;18.966;2022-12-05T14:48:01;-15309.38;;;3.69;100.00
42285;BME280;27942;47.510;18.966;2022-12-05T14:50:47;-15307.97;;;3.65;100.00
42285;BME280;27942;47.510;18.966;2022-12-05T14:55:47;-15307.19;;;3.62;100.00
42285;BME280;27942;47.510;18.966;2022-12-05T15:01:16;-15310.59;;;3.73;100.00
42285;BME280;27942;47.510;18.966;2022-12-05T15:06:48;-15311.06;;;3.75;100.00
42285;BME280;27942;47.510;18.966;2022-12-05T15:12:04;-15311.06;;;3.75;100.00
42285;BME280;27942;47.510;18.966;2022-12-05T15:14:35;-15308.75;;;3.67;100.00
42285;BME280;27942;47.510;18.966;2022-12-05T15:17:03;-15310.75;;;3.74;100.00
42285;BME280;27942;47.510;18.966;2022-12-05T15:19:42;-15309.81;;;3.71;100.00
42285;BME280;27942;47.510;18.966;2022-12-05T15:22:08;-15311.69;;;3.77;100.00
42285;BME280;27942;47.510;18.966;2022-12-05T15:24:38;-15311.69;;;3.77;100.00